Time;durP1;ratioP1;P1;durP2;ratioP2;P2;SDS_P1;SDS_P2;PMS_P1;PMS_P2;Temp;Humidity;BMP_temperature;BMP_pressure;BME280_temperature;BME280_humidity;BME280_pressure;Samples;Min_cycle;Max_cycle;Signal;HPM_P1;HPM_P2
2023/04/11 00:00:58;;;;;;;10.15;2.75;;;;;;;;;;6274948;22;20004;-76
2023/04/11 00:03:24;;;;;;;12.85;3.17;;;18.20;88.70;;;;;;6286741;22;20342;-76
2023/04/11 00:05:49;;;;;;;14.77;3.50;;;18.40;88.80;;;;;;6287090;22;19999;-76
2023/04/11 00:08:15;;;;;;;13.18;3.38;;;17.90;84.30;;;;;;6286831;22;20318;-76
2023/04/11 00:10:41;;;;;;;17.08;4.10;;;;;;;;;;6287033;22;20019;-76
2023/04/11 00:13:09;;;;;;;12.73;3.58;;;;;;;;;;6286973;22;20003;-75
2023/04/11 00:15:36;;;;;;;16.55;3.30;;;;;;;;;;6285589;22;20015;-76
2023/04/11 00:18:02;;;;;;;8.15;2.60;;;18.20;89.00;;;;;;6285388;22;19999;-76
2023/04/11 00:20:28;;;;;;;12.65;2.78;;;;;;;;;;6249835;22;20049;-76
2023/04/11 00:22:54;;;;;;;13.02;3.20;;;18.10;89.20;;;;;;6285468;22;19999;-76
2023/04/11 00:25:20;;;;;;;15.27;3.45;;;18.10;83.30;;;;;;6285176;22;20008;-76
2023/04/11 00:27:46;;;;;;;14.68;3.45;;;18.30;89.20;;;;;;6259685;22;20007;-75
2023/04/11 00:30:11;;;;;;;16.70;4.07;;;17.90;88.80;;;;;;6249863;22;20003;-76
2023/04/11 00:32:37;;;;;;;12.50;3.25;;;;;;;;;;6286768;22;20484;-76
2023/04/11 00:35:04;;;;;;;10.70;2.55;;;17.60;89.30;;;;;;6276998;22;20333;-89
2023/04/11 00:37:34;;;;;;;16.30;4.18;;;18.00;89.80;;;;;;6277188;22;20369;-89
2023/04/11 00:40:04;;;;;;;12.90;3.58;;;;;;;;;;6277233;22;20003;-89
2023/04/11 00:42:31;;;;;;;13.20;3.20;;;18.10;89.70;;;;;;6276717;22;20000;-89
2023/04/11 00:44:57;;;;;;;10.95;3.05;;;;;;;;;;6277073;22;19996;-89
2023/04/11 00:47:23;;;;;;;12.70;3.03;;;;;;;;;;6286834;22;20004;-88
2023/04/11 00:49:50;;;;;;;12.05;3.28;;;17.60;89.10;;;;;;6276578;22;20004;-89
2023/04/11 00:52:16;;;;;;;12.57;3.78;;;18.10;89.30;;;;;;6276868;22;19992;-87
2023/04/11 00:54:42;;;;;;;12.38;2.58;;;17.60;88.80;;;;;;6276690;22;20018;-88
2023/04/11 00:57:08;;;;;;;11.98;3.03;;;17.60;89.60;;;;;;6276304;22;20316;-88
2023/04/11 00:59:34;;;;;;;10.27;2.72;;;17.80;90.00;;;;;;6276666;22;20018;-88
2023/04/11 01:02:01;;;;;;;12.20;3.00;;;;;;;;;;6275822;22;20083;-88
2023/04/11 01:04:28;;;;;;;10.48;2.53;;;;;;;;;;6276685;22;20295;-88
2023/04/11 01:07:04;;;;;;;9.07;2.42;;;17.90;90.00;;;;;;6276729;22;20565;-88
2023/04/11 01:09:33;;;;;;;10.07;2.85;;;17.90;58.20;;;;;;6276885;22;20085;-88
2023/04/11 01:12:03;;;;;;;7.47;2.70;;;;;;;;;;6276722;22;20331;-89
2023/04/11 01:14:29;;;;;;;11.45;2.30;;;;;;;;;;6276772;22;20003;-89
2023/04/11 01:16:56;;;;;;;8.32;2.33;;;;;;;;;;6286658;22;20342;-87
2023/04/11 01:19:25;;;;;;;7.68;2.30;;;17.80;88.90;;;;;;6286883;22;20381;-89
2023/04/11 01:21:52;;;;;;;9.77;2.53;;;17.80;57.90;;;;;;6275173;22;20010;-90
2023/04/11 01:24:18;;;;;;;8.77;2.10;;;17.80;89.00;;;;;;6259891;22;20442;-89
2023/04/11 01:26:44;;;;;;;10.85;2.20;;;17.90;89.50;;;;;;6284683;22;20007;-88
2023/04/11 01:29:10;;;;;;;8.43;2.30;;;;;;;;;;6249350;22;20026;-88
2023/04/11 01:31:37;;;;;;;7.95;1.90;;;17.50;88.90;;;;;;6274678;22;20053;-88
2023/04/11 01:34:04;;;;;;;10.05;2.25;;;;;;;;;;6249295;22;20015;-88
2023/04/11 01:36:31;;;;;;;7.45;2.10;;;18.00;89.50;;;;;;6274777;22;20020;-88
2023/04/11 01:38:57;;;;;;;8.65;2.35;;;;;;;;;;6249385;22;20010;-88
2023/04/11 01:41:28;;;;;;;8.95;1.90;;;17.50;71.80;;;;;;6275076;22;20007;-89
2023/04/11 01:43:54;;;;;;;8.70;1.80;;;17.70;89.00;;;;;;6284661;22;20031;-87
2023/04/11 01:46:21;;;;;;;6.40;2.00;;;17.70;89.30;;;;;;6259041;22;20003;-87
2023/04/11 01:48:49;;;;;;;8.05;2.03;;;17.70;57.70;;;;;;6286119;22;20427;-87
2023/04/11 01:51:15;;;;;;;9.57;2.42;;;;;;;;;;6284659;22;19992;-87
2023/04/11 01:53:41;;;;;;;6.55;2.13;;;;;;;;;;6275942;22;20434;-87
2023/04/11 01:56:07;;;;;;;9.13;2.13;;;17.60;57.20;;;;;;6284482;22;20077;-87
2023/04/11 01:58:34;;;;;;;8.88;1.98;;;;;;;;;;6274293;22;20095;-87
2023/04/11 02:01:00;;;;;;;5.85;1.80;;;17.80;89.60;;;;;;6284712;22;20003;-87
2023/04/11 02:03:26;;;;;;;5.93;1.90;;;17.70;89.00;;;;;;6259062;22;20046;-87
2023/04/11 02:05:51;;;;;;;8.05;2.20;;;17.60;88.10;;;;;;6284593;22;20016;-88
2023/04/11 02:08:17;;;;;;;6.82;1.85;;;17.50;88.90;;;;;;6274732;22;20012;-88
2023/04/11 02:10:44;;;;;;;6.68;1.60;;;17.50;62.50;;;;;;6249237;22;20000;-88
2023/04/11 02:13:10;;;;;;;7.88;1.88;;;17.50;87.40;;;;;;6275496;22;20062;-88
2023/04/11 02:15:36;;;;;;;8.52;2.53;;;17.60;87.70;;;;;;6274585;22;20061;-89
2023/04/11 02:18:02;;;;;;;7.95;2.00;;;;;;;;;;6249411;22;20014;-89
2023/04/11 02:20:29;;;;;;;7.07;2.00;;;17.80;89.70;;;;;;6274750;22;20006;-89
2023/04/11 02:22:57;;;;;;;4.43;1.63;;;;;;;;;;6249284;22;20045;-88
2023/04/11 02:25:24;;;;;;;5.63;1.52;;;;;;;;;;6274596;22;20007;-87
2023/04/11 02:27:50;;;;;;;10.13;2.35;;;;;;;;;;6274407;22;20011;-87
2023/04/11 02:30:16;;;;;;;3.63;1.40;;;17.40;87.90;;;;;;6274085;22;20087;-88
2023/04/11 02:32:42;;;;;;;4.20;1.20;;;17.70;88.90;;;;;;6274369;22;20087;-88
2023/04/11 02:35:09;;;;;;;5.45;2.10;;;;;;;;;;6248935;22;20008;-88
2023/04/11 02:37:36;;;;;;;5.85;1.50;;;;;;;;;;6274507;22;20092;-88
2023/04/11 02:40:03;;;;;;;7.88;2.20;;;17.70;88.60;;;;;;6284211;22;19996;-88
2023/04/11 02:42:29;;;;;;;4.95;1.50;;;;;;;;;;6259391;22;20355;-89
2023/04/11 02:44:55;;;;;;;5.25;1.33;;;;;;;;;;6284666;22;20088;-89
2023/04/11 02:47:21;;;;;;;5.97;1.38;;;;;;;;;;6284510;22;20322;-89
2023/04/11 02:49:47;;;;;;;4.75;1.52;;;;;;;;;;6275510;22;20011;-88
2023/04/11 02:52:13;;;;;;;4.22;1.45;;;;;;;;;;6273822;22;20026;-87
2023/04/11 02:54:39;;;;;;;5.93;1.52;;;;;;;;;;6285714;22;20003;-87
2023/04/11 02:57:05;;;;;;;6.63;1.45;;;;;;;;;;6273875;22;20015;-88
2023/04/11 02:59:31;;;;;;;4.20;1.08;;;;;;;;;;6285956;22;20007;-88
2023/04/11 03:01:58;;;;;;;4.93;1.20;;;17.50;56.80;;;;;;6285388;22;20431;-88
2023/04/11 03:04:24;;;;;;;4.55;1.20;;;17.60;89.80;;;;;;6285803;22;19995;-88
2023/04/11 03:06:49;;;;;;;5.93;1.40;;;;;;;;;;6285534;22;20419;-88
2023/04/11 03:09:16;;;;;;;3.03;1.00;;;;;;;;;;6275654;22;20000;-88
2023/04/11 03:11:42;;;;;;;4.50;1.50;;;;;;;;;;6285522;22;20000;-87
2023/04/11 03:14:08;;;;;;;5.70;1.45;;;;;;;;;;6285509;22;20000;-87
2023/04/11 03:16:33;;;;;;;6.55;1.23;;;17.50;78.90;;;;;;6285506;22;20011;-87
2023/04/11 03:18:59;;;;;;;5.93;1.45;;;17.70;81.30;;;;;;6285782;22;19992;-88
2023/04/11 03:21:26;;;;;;;4.13;1.13;;;;;;;;;;6285712;22;20046;-87
2023/04/11 03:23:52;;;;;;;6.47;1.33;;;17.40;90.00;;;;;;6285675;22;20369;-88
2023/04/11 03:26:18;;;;;;;5.10;1.10;;;17.60;89.70;;;;;;6276092;22;20000;-87
2023/04/11 03:28:44;;;;;;;5.57;1.55;;;17.00;71.50;;;;;;6277444;22;19992;-88
2023/04/11 03:31:11;;;;;;;4.57;1.17;;;17.40;57.60;;;;;;6277793;22;20000;-88
2023/04/11 03:33:38;;;;;;;4.18;1.40;;;17.40;89.50;;;;;;6277979;22;20070;-87
2023/04/11 03:36:04;;;;;;;6.25;1.27;;;17.30;89.30;;;;;;6277626;22;20031;-88
2023/04/11 03:38:30;;;;;;;5.13;1.13;;;17.40;89.90;;;;;;6277796;22;20007;-89
2023/04/11 03:40:56;;;;;;;8.07;1.65;;;17.30;89.60;;;;;;6287842;22;19996;-89
2023/04/11 03:43:21;;;;;;;5.10;1.08;;;17.20;89.30;;;;;;6287638;22;20057;-89
2023/04/11 03:45:47;;;;;;;3.85;1.10;;;17.30;89.50;;;;;;6277307;22;20067;-88
2023/04/11 03:48:15;;;;;;;3.15;0.93;;;;;;;;;;6277640;22;19999;-88
2023/04/11 03:50:41;;;;;;;5.30;1.00;;;;;;;;;;6277697;22;20015;-88
2023/04/11 03:53:07;;;;;;;4.55;1.20;;;;;;;;;;6277022;22;20419;-88
2023/04/11 03:55:34;;;;;;;4.90;0.88;;;17.60;89.70;;;;;;6275436;22;20012;-87
2023/04/11 03:57:59;;;;;;;4.22;1.38;;;17.20;89.80;;;;;;6276766;22;19996;-88
2023/04/11 04:00:26;;;;;;;3.65;0.90;;;17.50;90.00;;;;;;6276727;22;20435;-88
2023/04/11 04:02:52;;;;;;;4.20;0.77;;;17.30;89.90;;;;;;6276792;22;20007;-88
2023/04/11 04:05:18;;;;;;;1.83;0.60;;;16.90;85.40;;;;;;6277035;22;19995;-88
2023/04/11 04:07:44;;;;;;;4.18;1.30;;;;;;;;;;6276993;22;19992;-87
2023/04/11 04:10:11;;;;;;;3.83;1.00;;;;;;;;;;6277102;22;20000;-89
2023/04/11 04:12:38;;;;;;;4.22;1.17;;;17.30;58.30;;;;;;6277288;22;20006;-89
2023/04/11 04:15:05;;;;;;;4.90;1.00;;;17.50;66.10;;;;;;6277280;22;20342;-88
2023/04/11 04:17:31;;;;;;;4.35;1.10;;;;;;;;;;6277204;22;19999;-88
2023/04/11 04:19:58;;;;;;;2.78;0.70;;;;;;;;;;6277277;22;20004;-88
2023/04/11 04:22:25;;;;;;;2.70;1.08;;;17.50;89.60;;;;;;6286987;22;20070;-88
2023/04/11 04:24:51;;;;;;;3.60;0.70;;;;;;;;;;6287153;22;20326;-88
2023/04/11 04:27:17;;;;;;;3.20;0.95;;;;;;;;;;6286932;22;20000;-88
2023/04/11 04:29:46;;;;;;;3.28;0.82;;;17.40;56.50;;;;;;6286945;22;20010;-88
2023/04/11 04:32:19;;;;;;;5.35;1.65;;;17.40;58.60;;;;;;6277101;22;20018;-89
2023/04/11 04:34:48;;;;;;;2.67;0.90;;;;;;;;;;6287215;22;20311;-87
2023/04/11 04:37:21;;;;;;;3.28;0.80;;;17.40;56.90;;;;;;6274825;22;20015;-88
2023/04/11 04:39:54;;;;;;;1.85;0.70;;;17.40;58.20;;;;;;6277106;22;19996;-88
2023/04/11 04:42:24;;;;;;;3.58;1.10;;;17.40;90.00;;;;;;6286921;22;20000;-88
2023/04/11 04:44:51;;;;;;;2.67;1.00;;;17.20;90.10;;;;;;6287136;22;20319;-87
2023/04/11 04:47:17;;;;;;;3.55;1.10;;;17.30;56.20;;;;;;6286804;22;20006;-88
2023/04/11 04:49:44;;;;;;;4.80;1.60;;;17.30;56.10;;;;;;6286688;22;19999;-88
2023/04/11 04:52:12;;;;;;;4.47;2.00;;;17.30;59.10;;;;;;6276788;22;20000;-88
2023/04/11 04:54:38;;;;;;;5.70;2.70;;;17.30;90.30;;;;;;6286610;22;20017;-87
2023/04/11 04:57:05;;;;;;;6.07;3.50;;;;;;;;;;6286615;22;20354;-88
2023/04/11 04:59:31;;;;;;;6.72;4.35;;;;;;;;;;6276501;22;20007;-88
2023/04/11 05:01:57;;;;;;;5.90;5.35;;;16.90;74.90;;;;;;6276140;22;20443;-88
2023/04/11 05:04:24;;;;;;;7.97;7.15;;;;;;;;;;6276351;22;19991;-88
2023/04/11 05:06:50;;;;;;;11.13;8.30;;;;;;;;;;6276677;22;20027;-88
2023/04/11 05:09:19;;;;;;;10.20;9.20;;;17.20;90.10;;;;;;6286536;22;19992;-87
2023/04/11 05:11:45;;;;;;;11.60;10.52;;;;;;;;;;6286471;22;20002;-75
2023/04/11 05:14:11;;;;;;;12.48;11.38;;;;;;;;;;6286387;22;19999;-76
2023/04/11 05:16:40;;;;;;;15.70;14.20;;;17.20;59.00;;;;;;6286064;22;20007;-76
2023/04/11 05:19:06;;;;;;;15.18;13.77;;;;;;;;;;6276011;22;19991;-76
2023/04/11 05:21:32;;;;;;;15.95;14.65;;;;;;;;;;6286082;22;19995;-76
2023/04/11 05:23:58;;;;;;;17.92;16.15;;;;;;;;;;6284542;22;20369;-74
2023/04/11 05:26:23;;;;;;;19.10;17.38;;;17.20;89.30;;;;;;6286114;22;20006;-78
2023/04/11 05:28:49;;;;;;;19.48;17.58;;;;;;;;;;6286235;22;20431;-76
2023/04/11 05:31:15;;;;;;;17.85;16.15;;;;;;;;;;6274248;22;20003;-75
2023/04/11 05:33:42;;;;;;;18.17;16.40;;;;;;;;;;6284549;22;19995;-73
2023/04/11 05:36:12;;;;;;;16.90;15.32;;;17.30;89.30;;;;;;6286071;22;20061;-74
2023/04/11 05:38:39;;;;;;;16.75;15.07;;;17.40;90.10;;;;;;6276212;22;19991;-74
2023/04/11 05:41:06;;;;;;;16.30;14.73;;;17.30;62.60;;;;;;6286020;22;20079;-74
2023/04/11 05:43:32;;;;;;;15.43;13.80;;;16.90;65.90;;;;;;6276051;22;20363;-74
2023/04/11 05:45:58;;;;;;;14.75;12.00;;;17.20;89.60;;;;;;6276115;22;19995;-74
2023/04/11 05:48:24;;;;;;;12.80;11.35;;;16.90;89.50;;;;;;6275679;22;20363;-74
2023/04/11 05:50:50;;;;;;;12.68;10.77;;;17.20;89.80;;;;;;6275574;22;20031;-74
2023/04/11 05:53:17;;;;;;;13.88;10.07;;;17.00;89.50;;;;;;6275998;22;20012;-73
2023/04/11 05:55:43;;;;;;;9.77;8.93;;;;;;;;;;6275638;22;20007;-75
2023/04/11 05:58:10;;;;;;;15.77;9.40;;;;;;;;;;6275901;22;20078;-75
2023/04/11 06:00:40;;;;;;;13.15;8.65;;;17.20;89.90;;;;;;6275806;22;19996;-76
2023/04/11 06:03:09;;;;;;;7.85;7.05;;;17.20;90.20;;;;;;6275509;22;20011;-75
2023/04/11 06:05:35;;;;;;;8.82;6.57;;;;;;;;;;6275917;22;20075;-75
2023/04/11 06:08:02;;;;;;;8.63;5.82;;;17.00;68.30;;;;;;6285856;22;20430;-75
2023/04/11 06:10:29;;;;;;;7.32;5.95;;;17.10;72.90;;;;;;6285880;22;19996;-74
2023/04/11 06:12:55;;;;;;;8.80;5.20;;;;;;;;;;6273902;22;20583;-75
2023/04/11 06:15:22;;;;;;;6.13;4.75;;;17.20;58.90;;;;;;6285573;22;20007;-76
2023/04/11 06:17:48;;;;;;;6.63;4.30;;;17.30;90.10;;;;;;6285648;22;20335;-75
2023/04/11 06:20:15;;;;;;;9.30;4.10;;;16.80;69.30;;;;;;6275754;22;19996;-75
2023/04/11 06:22:42;;;;;;;6.63;3.70;;;17.20;77.60;;;;;;6275767;22;20022;-74
2023/04/11 06:25:09;;;;;;;4.43;3.42;;;17.30;90.10;;;;;;6275264;22;19995;-73
2023/04/11 06:27:35;;;;;;;4.43;3.15;;;;;;;;;;6285299;22;20022;-74
2023/04/11 06:30:01;;;;;;;5.60;2.75;;;17.00;83.50;;;;;;6273706;22;20003;-75
2023/04/11 06:32:27;;;;;;;6.10;2.88;;;17.20;83.70;;;;;;6273959;22;20022;-75
2023/04/11 06:34:54;;;;;;;5.75;3.10;;;;;;;;;;6275065;22;19996;-73
2023/04/11 06:37:20;;;;;;;6.00;2.55;;;16.90;90.10;;;;;;6275208;22;20046;-73
2023/04/11 06:39:46;;;;;;;5.63;2.60;;;17.00;90.20;;;;;;6275488;22;20015;-73
2023/04/11 06:42:12;;;;;;;6.80;2.13;;;17.20;90.30;;;;;;6275625;22;20004;-73
2023/04/11 06:44:38;;;;;;;4.18;2.10;;;17.00;90.20;;;;;;6274972;22;19996;-73
2023/04/11 06:47:04;;;;;;;5.20;1.98;;;;;;;;;;6285286;22;19996;-74
2023/04/11 06:49:31;;;;;;;4.03;1.80;;;17.00;90.20;;;;;;6275061;22;20006;-74
2023/04/11 06:51:58;;;;;;;5.07;1.75;;;17.20;68.80;;;;;;6275088;22;19995;-74
2023/04/11 06:54:24;;;;;;;4.72;1.67;;;17.10;90.10;;;;;;6275535;22;19992;-72
2023/04/11 06:56:50;;;;;;;7.75;1.98;;;17.20;58.20;;;;;;6275326;22;20008;-73
2023/04/11 06:59:19;;;;;;;3.90;1.40;;;17.00;90.10;;;;;;6276386;22;19996;-84
2023/04/11 07:01:45;;;;;;;4.13;1.40;;;;;;;;;;6277255;22;20003;-87
2023/04/11 07:04:11;;;;;;;4.88;1.48;;;;;;;;;;6287764;22;20071;-82
2023/04/11 07:06:37;;;;;;;4.22;1.30;;;;;;;;;;6287387;22;20280;-83
2023/04/11 07:09:04;;;;;;;4.93;1.63;;;16.80;89.30;;;;;;6277610;22;20011;-83
2023/04/11 07:11:30;;;;;;;4.80;1.33;;;17.70;60.40;;;;;;6277237;22;20042;-82
2023/04/11 07:14:01;;;;;;;4.55;1.27;;;17.20;58.20;;;;;;6277236;22;20493;-82
2023/04/11 07:16:27;;;;;;;8.15;2.88;;;;;;;;;;6277011;22;20083;-81
2023/04/11 07:18:54;;;;;;;3.38;1.35;;;17.20;88.30;;;;;;6276649;22;20138;-80
2023/04/11 07:21:20;;;;;;;5.20;1.45;;;17.20;89.60;;;;;;6277275;22;19999;-80
2023/04/11 07:23:47;;;;;;;3.67;1.17;;;;;;;;;;6276935;22;20316;-80
2023/04/11 07:26:15;;;;;;;4.45;1.40;;;17.50;58.70;;;;;;6276461;22;20079;-81
2023/04/11 07:28:43;;;;;;;5.22;1.67;;;17.80;58.20;;;;;;6276914;22;20003;-81
2023/04/11 07:31:13;;;;;;;6.90;1.20;;;17.20;58.00;;;;;;6276577;22;20003;-81
2023/04/11 07:33:42;;;;;;;10.63;1.52;;;17.30;85.50;;;;;;6277228;22;20102;-80
2023/04/11 07:36:09;;;;;;;3.58;0.90;;;17.70;59.30;;;;;;6276694;22;20331;-80
2023/04/11 07:38:36;;;;;;;5.38;0.98;;;17.20;82.60;;;;;;6277142;22;20003;-73
2023/04/11 07:41:03;;;;;;;3.60;0.98;;;17.20;57.10;;;;;;6276689;22;20000;-73
2023/04/11 07:43:30;;;;;;;3.28;1.23;;;16.90;88.20;;;;;;6276788;22;19999;-73
2023/04/11 07:45:57;;;;;;;4.75;1.48;;;17.20;60.70;;;;;;6276976;22;20020;-73
2023/04/11 07:48:26;;;;;;;6.13;1.27;;;17.30;81.50;;;;;;6276745;22;19999;-73
2023/04/11 07:50:53;;;;;;;4.35;1.20;;;17.00;65.40;;;;;;6277162;22;20004;-73
2023/04/11 07:53:20;;;;;;;6.05;1.38;;;17.00;61.30;;;;;;6277073;22;20002;-73
2023/04/11 07:55:46;;;;;;;3.22;1.13;;;17.10;88.90;;;;;;6276657;22;20435;-73
2023/04/11 07:58:13;;;;;;;3.65;1.05;;;;;;;;;;6276609;22;20003;-73
2023/04/11 08:00:39;;;;;;;4.07;1.20;;;;;;;;;;6276738;22;20003;-73
2023/04/11 08:03:07;;;;;;;5.78;1.20;;;17.20;89.50;;;;;;6276434;22;20079;-73
2023/04/11 08:05:34;;;;;;;3.22;1.13;;;17.20;82.90;;;;;;6277051;22;20003;-73
2023/04/11 08:08:01;;;;;;;4.78;1.33;;;16.80;88.10;;;;;;6276946;22;20018;-73
2023/04/11 08:10:28;;;;;;;6.55;1.15;;;;;;;;;;6276267;22;20415;-73
2023/04/11 08:12:54;;;;;;;4.57;1.10;;;16.80;88.60;;;;;;6276603;22;20026;-73
2023/04/11 08:15:20;;;;;;;3.35;0.82;;;17.00;88.20;;;;;;6286708;22;20014;-73
2023/04/11 08:17:48;;;;;;;5.03;1.38;;;16.90;87.90;;;;;;6286869;22;20066;-74
2023/04/11 08:20:15;;;;;;;5.05;1.25;;;17.20;88.30;;;;;;6276476;22;19995;-74
2023/04/11 08:22:45;;;;;;;6.28;1.65;;;17.10;55.00;;;;;;6276764;22;20003;-74
2023/04/11 08:25:13;;;;;;;5.18;1.45;;;17.00;86.60;;;;;;6276739;22;20028;-74
2023/04/11 08:27:40;;;;;;;6.45;1.63;;;17.30;58.10;;;;;;6276738;22;20050;-73
2023/04/11 08:30:07;;;;;;;3.88;0.82;;;17.20;88.30;;;;;;6276268;22;20003;-74
2023/04/11 08:32:34;;;;;;;7.35;1.30;;;17.30;88.50;;;;;;6286836;22;20226;-74
2023/04/11 08:34:59;;;;;;;4.00;1.10;;;17.20;88.10;;;;;;6286512;22;20003;-74
2023/04/11 08:37:26;;;;;;;7.63;1.52;;;17.30;87.90;;;;;;6276668;22;20075;-74
2023/04/11 08:39:52;;;;;;;3.92;1.13;;;17.40;83.30;;;;;;6276313;22;20003;-73
2023/04/11 08:42:26;;;;;;;4.65;1.10;;;16.90;88.00;;;;;;6276431;22;20407;-74
2023/04/11 08:44:54;;;;;;;4.03;1.48;;;17.20;88.20;;;;;;6276599;22;19995;-74
2023/04/11 08:47:20;;;;;;;5.07;1.50;;;17.20;88.40;;;;;;6276061;22;20024;-74
2023/04/11 08:49:47;;;;;;;4.97;1.30;;;;;;;;;;6276570;22;20087;-74
2023/04/11 08:52:13;;;;;;;3.70;1.20;;;17.10;59.60;;;;;;6276436;22;20008;-74
2023/04/11 08:54:39;;;;;;;2.63;1.00;;;16.90;73.30;;;;;;6276065;22;19992;-74
2023/04/11 08:57:05;;;;;;;5.80;1.15;;;;;;;;;;6276203;22;20011;-74
2023/04/11 08:59:34;;;;;;;3.80;0.80;;;17.30;57.80;;;;;;6275914;22;20003;-74
2023/04/11 09:02:10;;;;;;;2.60;1.00;;;17.20;88.20;;;;;;6276045;22;20007;-74
2023/04/11 09:04:40;;;;;;;3.60;0.95;;;17.50;88.10;;;;;;6275991;22;19996;-74
2023/04/11 09:07:06;;;;;;;3.55;1.17;;;17.30;88.00;;;;;;6276353;22;20071;-73
2023/04/11 09:09:35;;;;;;;4.60;1.15;;;17.50;88.10;;;;;;6276239;22;20408;-74
2023/04/11 09:12:03;;;;;;;6.00;1.52;;;17.40;55.10;;;;;;6276284;22;19992;-74
2023/04/11 09:14:30;;;;;;;3.28;0.80;;;;;;;;;;6249245;22;20000;-74
2023/04/11 09:17:03;;;;;;;2.60;0.98;;;17.50;87.90;;;;;;6274261;22;20058;-74
2023/04/11 09:19:31;;;;;;;3.08;1.17;;;17.60;57.00;;;;;;6249303;22;20035;-74
2023/04/11 09:22:03;;;;;;;3.08;0.98;;;17.60;56.70;;;;;;6249120;22;20003;-74
2023/04/11 09:24:30;;;;;;;4.88;0.98;;;17.70;87.00;;;;;;6249994;22;20010;-74
2023/04/11 09:27:28;;;;;;;4.93;1.00;;;17.70;84.20;;;;;;6259008;22;20030;-74
2023/04/11 09:29:54;;;;;;;3.85;1.00;;;17.80;87.40;;;;;;6201762;22;20034;-74
2023/04/11 09:32:33;;;;;;;4.03;0.80;;;17.90;87.50;;;;;;6259226;22;20091;-74
2023/04/11 09:35:19;;;;;;;3.03;0.85;;;17.80;52.70;;;;;;6248741;22;20434;-74
2023/04/11 09:37:54;;;;;;;3.90;1.20;;;17.90;52.60;;;;;;6284430;22;20114;-74
2023/04/11 09:40:24;;;;;;;2.90;0.73;;;18.00;71.10;;;;;;6284459;22;20007;-74
2023/04/11 09:42:57;;;;;;;3.30;0.70;;;18.00;82.00;;;;;;6249586;22;20010;-74
2023/04/11 09:45:24;;;;;;;2.97;0.90;;;17.90;86.40;;;;;;6259393;22;20078;-74
2023/04/11 09:47:52;;;;;;;2.85;0.77;;;18.20;86.40;;;;;;6258607;22;20003;-80
2023/04/11 09:50:18;;;;;;;1.60;0.98;;;18.10;86.30;;;;;;6258561;22;20083;-80
2023/04/11 09:52:45;;;;;;;5.10;1.02;;;18.00;55.90;;;;;;6248452;22;20000;-80
2023/04/11 09:55:15;;;;;;;2.58;0.85;;;18.20;58.20;;;;;;6248625;22;20011;-80
2023/04/11 09:57:47;;;;;;;5.63;1.27;;;18.10;55.70;;;;;;6248495;22;20000;-80
2023/04/11 10:00:27;;;;;;;5.50;1.00;;;20.40;56.50;;;;;;6249363;22;20011;-80
2023/04/11 10:02:55;;;;;;;2.15;0.63;;;18.50;82.10;;;;;;6275056;22;20008;-80
2023/04/11 10:05:26;;;;;;;2.15;0.93;;;18.20;52.40;;;;;;6273902;22;20030;-80
2023/04/11 10:08:13;;;;;;;1.27;0.60;;;18.50;86.20;;;;;;6248169;22;20007;-80
2023/04/11 10:10:42;;;;;;;2.85;1.00;;;18.40;55.60;;;;;;6274953;22;20066;-80
2023/04/11 10:13:33;;;;;;;4.40;1.73;;;18.50;51.90;;;;;;6248365;22;20004;-80
2023/04/11 10:16:14;;;;;;;4.35;0.80;;;18.40;80.70;;;;;;6275142;22;20011;-79
2023/04/11 10:18:51;;;;;;;;;;;18.60;56.80;;;;;;6275723;22;19991;-80
2023/04/11 10:21:26;;;;;;;1.90;0.70;;;18.40;85.80;;;;;;6275136;22;19905;-79
2023/04/11 10:24:10;;;;;;;3.10;1.10;;;18.80;66.60;;;;;;6275554;22;20074;-80
2023/04/11 10:26:58;;;;;;;1.30;0.60;;;18.60;85.60;;;;;;6274821;22;20450;-79
2023/04/11 10:32:09;;;;;;;3.90;1.13;;;18.90;50.90;;;;;;6285326;22;20009;-79
2023/04/11 10:34:38;;;;;;;3.60;1.00;;;19.00;63.40;;;;;;6274953;22;20069;-79
2023/04/11 10:37:08;;;;;;;4.47;1.00;;;19.00;50.40;;;;;;6248396;22;20062;-79
2023/04/11 10:40:10;;;;;;;3.75;1.30;;;19.10;50.30;;;;;;6275259;22;20038;-79
2023/04/11 10:42:41;;;;;;;6.38;1.13;;;18.80;84.30;;;;;;6254075;22;20142;-79
2023/04/11 10:45:25;;;;;;;;;;;19.10;55.00;;;;;;6275519;22;20458;-79
2023/04/11 10:47:57;;;;;;;4.45;1.27;;;19.10;62.40;;;;;;6275490;22;19907;-80
2023/04/11 10:50:26;;;;;;;4.45;1.05;;;19.40;49.30;;;;;;6285018;22;20030;-79
2023/04/11 10:52:52;;;;;;;5.75;1.42;;;;;;;;;;6275274;22;20123;-79
2023/04/11 10:55:19;;;;;;;4.15;1.17;;;19.60;79.10;;;;;;6275072;22;20339;-79
2023/04/11 10:58:10;;;;;;;6.10;1.38;;;19.30;52.10;;;;;;6275189;22;20389;-80
2023/04/11 11:00:46;;;;;;;4.85;0.80;;;19.60;80.40;;;;;;6274701;22;19996;-79
2023/04/11 11:03:30;;;;;;;3.08;1.17;;;20.00;83.20;;;;;;6274431;22;20073;-80
2023/04/11 11:06:00;;;;;;;1.75;0.65;;;19.80;52.50;;;;;;6274553;22;20006;-80
2023/04/11 11:08:40;;;;;;;3.63;1.33;;;19.80;52.30;;;;;;6274951;22;20015;-79
2023/04/11 11:11:07;;;;;;;;;;;19.70;53.20;;;;;;6275527;22;20003;-80
2023/04/11 11:14:00;;;;;;;2.55;1.23;;;19.90;82.60;;;;;;6275374;22;20283;-80
2023/04/11 11:16:26;;;;;;;2.55;0.82;;;19.70;82.20;;;;;;6270179;22;20091;-80
2023/04/11 11:18:54;;;;;;;3.80;1.05;;;20.10;82.30;;;;;;6274866;22;20438;-74
2023/04/11 11:21:23;;;;;;;4.88;1.20;;;20.30;73.90;;;;;;6275041;22;19995;-74
2023/04/11 11:24:07;;;;;;;3.33;1.10;;;20.20;47.40;;;;;;6274992;22;20435;-74
2023/04/11 11:26:41;;;;;;;3.92;1.10;;;20.00;81.90;;;;;;6275512;22;20007;-75
2023/04/11 11:29:08;;;;;;;2.90;0.80;;;20.70;72.80;;;;;;6275256;22;20007;-74
2023/04/11 11:31:38;;;;;;;3.35;1.33;;;20.50;82.00;;;;;;6275381;22;20370;-74
2023/04/11 11:34:05;;;;;;;2.67;0.95;;;20.50;81.60;;;;;;6274986;22;20500;-74
2023/04/11 11:36:43;;;;;;;2.33;0.70;;;20.50;71.10;;;;;;6273888;22;20075;-75
2023/04/11 11:39:10;;;;;;;6.68;1.17;;;21.00;65.60;;;;;;6275209;22;20067;-74
2023/04/11 11:41:37;;;;;;;3.60;0.70;;;20.50;81.40;;;;;;6274987;22;20003;-74
2023/04/11 11:44:05;;;;;;;4.18;0.90;;;20.60;81.60;;;;;;6274856;22;20011;-74
2023/04/11 11:46:34;;;;;;;3.78;1.17;;;20.90;55.70;;;;;;6286338;22;20175;-74
2023/04/11 11:49:03;;;;;;;2.85;1.10;;;20.80;82.20;;;;;;6277188;22;20010;-74
2023/04/11 11:51:46;;;;;;;3.50;1.00;;;20.60;47.30;;;;;;6277196;22;20000;-74
2023/04/11 11:54:12;;;;;;;2.60;0.82;;;20.40;82.00;;;;;;6287064;22;20371;-74
2023/04/11 11:56:39;;;;;;;3.92;1.08;;;20.60;82.10;;;;;;6287312;22;20038;-74
2023/04/11 11:59:06;;;;;;;6.60;1.48;;;20.40;56.40;;;;;;6276624;22;20071;-74
2023/04/11 12:01:34;;;;;;;6.30;1.25;;;20.40;81.60;;;;;;6276819;22;20015;-75
2023/04/11 12:04:00;;;;;;;3.28;0.90;;;21.00;81.60;;;;;;6276498;22;20007;-74
2023/04/11 12:06:33;;;;;;;3.95;0.80;;;20.90;81.20;;;;;;6277047;22;20000;-74
2023/04/11 12:09:02;;;;;;;4.68;1.08;;;21.10;46.30;;;;;;6277037;22;20003;-74
2023/04/11 12:11:38;;;;;;;2.92;0.82;;;21.00;81.00;;;;;;6276609;22;20488;-74
2023/04/11 12:14:05;;;;;;;5.65;1.52;;;21.00;80.90;;;;;;6276863;22;20000;-74
2023/04/11 12:16:32;;;;;;;6.22;1.20;;;21.10;60.40;;;;;;6276777;22;20018;-74
2023/04/11 12:18:59;;;;;;;5.07;1.10;;;21.10;79.90;;;;;;6276465;22;20434;-74
2023/04/11 12:21:25;;;;;;;1.33;0.63;;;21.20;80.00;;;;;;6276501;22;19995;-74
2023/04/11 12:23:52;;;;;;;3.20;0.90;;;;;;;;;;6276453;22;19996;-74
2023/04/11 12:26:21;;;;;;;5.72;1.55;;;;;;;;;;6275267;22;20079;-74
2023/04/11 12:28:48;;;;;;;5.97;1.15;;;21.60;62.50;;;;;;6276782;22;20004;-74
2023/04/11 12:31:16;;;;;;;4.20;0.85;;;22.00;78.70;;;;;;6276408;22;20000;-73
2023/04/11 12:33:42;;;;;;;2.53;0.90;;;;;;;;;;6276398;22;20074;-73
2023/04/11 12:36:09;;;;;;;3.13;1.00;;;22.10;79.50;;;;;;6276094;22;20035;-74
2023/04/11 12:38:35;;;;;;;1.27;0.57;;;;;;;;;;6276795;22;20342;-74
2023/04/11 12:41:01;;;;;;;4.97;1.48;;;;;;;;;;6286703;22;20034;-74
2023/04/11 12:43:27;;;;;;;2.65;0.75;;;;;;;;;;6286507;22;20003;-74
2023/04/11 12:45:53;;;;;;;4.38;1.05;;;;;;;;;;6286518;22;20031;-73
2023/04/11 12:48:19;;;;;;;3.38;0.90;;;;;;;;;;6286468;22;20019;-74
2023/04/11 12:50:45;;;;;;;3.90;0.90;;;;;;;;;;6286561;22;20253;-73
2023/04/11 12:53:11;;;;;;;2.78;1.00;;;;;;;;;;6286426;22;20056;-73
2023/04/11 12:55:37;;;;;;;3.20;1.08;;;;;;;;;;6286309;22;20019;-73
2023/04/11 12:58:03;;;;;;;3.65;1.20;;;;;;;;;;6286254;22;20000;-73
2023/04/11 13:00:29;;;;;;;3.80;0.77;;;22.40;77.10;;;;;;6286239;22;20000;-74
2023/04/11 13:02:56;;;;;;;3.00;0.73;;;22.70;77.00;;;;;;6286125;22;20008;-73
2023/04/11 13:05:22;;;;;;;5.32;0.95;;;22.40;77.30;;;;;;6275961;22;20003;-73
2023/04/11 13:07:48;;;;;;;3.38;1.00;;;22.20;76.70;;;;;;6275697;22;19999;-72
2023/04/11 13:10:15;;;;;;;3.67;1.15;;;22.70;65.90;;;;;;6276201;22;20003;-72
2023/04/11 13:12:43;;;;;;;2.83;0.70;;;22.50;45.00;;;;;;6276237;22;19996;-73
2023/04/11 13:15:13;;;;;;;4.13;0.93;;;22.20;41.30;;;;;;6275704;22;20466;-72
2023/04/11 13:17:40;;;;;;;2.13;0.75;;;;;;;;;;6275713;22;20010;-72
2023/04/11 13:20:11;;;;;;;2.92;0.73;;;22.60;76.00;;;;;;6275761;22;20345;-72
2023/04/11 13:22:38;;;;;;;6.15;1.02;;;22.40;45.60;;;;;;6285701;22;20000;-73